sensor_id;sensor_type;location;lat;lon;timestamp;temperature;humidity
24448;DHT22;13348;50.984;5.822;2023-03-11T17:31:11;4.50;99.90
24448;DHT22;13348;50.984;5.822;2023-03-11T17:33:38;4.60;99.90
24448;DHT22;13348;50.984;5.822;2023-03-11T17:36:06;4.70;99.90
24448;DHT22;13348;50.984;5.822;2023-03-11T17:38:33;4.60;99.90
24448;DHT22;13348;50.984;5.822;2023-03-11T17:41:04;4.70;99.90
24448;DHT22;13348;50.984;5.822;2023-03-11T17:43:31;4.60;99.90
24448;DHT22;13348;50.984;5.822;2023-03-11T17:45:58;4.70;99.90
24448;DHT22;13348;50.984;5.822;2023-03-11T17:48:27;4.60;99.90
24448;DHT22;13348;50.984;5.822;2023-03-11T17:50:54;4.60;99.90
24448;DHT22;13348;50.984;5.822;2023-03-11T17:53:21;4.50;99.90
24448;DHT22;13348;50.984;5.822;2023-03-11T17:55:48;4.40;99.90
24448;DHT22;13348;50.984;5.822;2023-03-11T17:58:14;4.40;99.90
24448;DHT22;13348;50.984;5.822;2023-03-11T18:00:41;4.50;99.90
24448;DHT22;13348;50.984;5.822;2023-03-11T18:03:08;4.40;99.90
24448;DHT22;13348;50.984;5.822;2023-03-11T18:05:37;4.30;99.90
24448;DHT22;13348;50.984;5.822;2023-03-11T18:08:04;4.20;99.90
24448;DHT22;13348;50.984;5.822;2023-03-11T18:10:31;4.00;99.90
24448;DHT22;13348;50.984;5.822;2023-03-11T18:12:58;3.90;99.90
24448;DHT22;13348;50.984;5.822;2023-03-11T18:15:25;3.80;99.90
24448;DHT22;13348;50.984;5.822;2023-03-11T18:17:52;3.70;99.90
24448;DHT22;13348;50.984;5.822;2023-03-11T18:20:21;3.60;99.90
24448;DHT22;13348;50.984;5.822;2023-03-11T18:22:49;3.50;99.90
24448;DHT22;13348;50.984;5.822;2023-03-11T18:25:16;3.40;99.90
24448;DHT22;13348;50.984;5.822;2023-03-11T18:27:43;3.30;99.90
24448;DHT22;13348;50.984;5.822;2023-03-11T18:30:11;3.20;99.90
24448;DHT22;13348;50.984;5.822;2023-03-11T18:32:39;3.10;99.90
24448;DHT22;13348;50.984;5.822;2023-03-11T18:35:06;3.00;99.90
24448;DHT22;13348;50.984;5.822;2023-03-11T18:37:33;2.60;99.90
24448;DHT22;13348;50.984;5.822;2023-03-11T18:40:01;2.40;99.90
24448;DHT22;13348;50.984;5.822;2023-03-11T18:42:30;2.10;99.90
24448;DHT22;13348;50.984;5.822;2023-03-11T18:44:57;1.70;99.90
24448;DHT22;13348;50.984;5.822;2023-03-11T18:47:24;1.60;99.90
24448;DHT22;13348;50.984;5.822;2023-03-11T18:49:51;1.80;99.90
24448;DHT22;13348;50.984;5.822;2023-03-11T18:52:19;1.80;99.90
24448;DHT22;13348;50.984;5.822;2023-03-11T18:54:47;1.80;99.90
24448;DHT22;13348;50.984;5.822;2023-03-11T18:57:15;1.90;99.90
24448;DHT22;13348;50.984;5.822;2023-03-11T18:59:42;1.80;99.90
24448;DHT22;13348;50.984;5.822;2023-03-11T19:02:09;1.70;99.90
24448;DHT22;13348;50.984;5.822;2023-03-11T19:04:36;1.50;99.90
24448;DHT22;13348;50.984;5.822;2023-03-11T19:07:03;1.30;99.90
24448;DHT22;13348;50.984;5.822;2023-03-11T19:09:30;1.20;99.90
24448;DHT22;13348;50.984;5.822;2023-03-11T19:11:57;1.20;99.90
24448;DHT22;13348;50.984;5.822;2023-03-11T19:14:25;1.20;99.90
24448;DHT22;13348;50.984;5.822;2023-03-11T19:16:52;1.30;99.90
24448;DHT22;13348;50.984;5.822;2023-03-11T19:19:19;1.10;99.90
24448;DHT22;13348;50.984;5.822;2023-03-11T19:21:46;1.00;99.90
24448;DHT22;13348;50.984;5.822;2023-03-11T19:24:13;1.00;99.90
24448;DHT22;13348;50.984;5.822;2023-03-11T19:26:40;1.00;99.90
24448;DHT22;13348;50.984;5.822;2023-03-11T19:29:07;1.00;99.90
24448;DHT22;13348;50.984;5.822;2023-03-11T19:31:36;0.90;99.90
24448;DHT22;13348;50.984;5.822;2023-03-11T19:34:03;0.80;99.90
24448;DHT22;13348;50.984;5.822;2023-03-11T19:36:30;0.80;99.90
24448;DHT22;13348;50.984;5.822;2023-03-11T19:38:57;0.70;99.90
24448;DHT22;13348;50.984;5.822;2023-03-11T19:41:24;0.60;99.90
24448;DHT22;13348;50.984;5.822;2023-03-11T19:43:51;0.60;99.90
24448;DHT22;13348;50.984;5.822;2023-03-11T19:46:19;0.50;99.90
24448;DHT22;13348;50.984;5.822;2023-03-11T19:48:47;0.40;99.90
24448;DHT22;13348;50.984;5.822;2023-03-11T19:51:15;0.30;99.90
24448;DHT22;13348;50.984;5.822;2023-03-11T19:53:43;0.40;99.90
24448;DHT22;13348;50.984;5.822;2023-03-11T19:56:11;0.50;99.90
24448;DHT22;13348;50.984;5.822;2023-03-11T19:58:39;0.50;99.90
24448;DHT22;13348;50.984;5.822;2023-03-11T20:01:06;0.50;99.90
24448;DHT22;13348;50.984;5.822;2023-03-11T20:03:40;0.40;99.90
24448;DHT22;13348;50.984;5.822;2023-03-11T20:06:09;0.40;99.90
24448;DHT22;13348;50.984;5.822;2023-03-11T20:08:37;0.40;99.90
24448;DHT22;13348;50.984;5.822;2023-03-11T20:11:04;0.30;99.90
24448;DHT22;13348;50.984;5.822;2023-03-11T20:13:32;0.10;99.90
24448;DHT22;13348;50.984;5.822;2023-03-11T20:16:03;0.00;99.90
24448;DHT22;13348;50.984;5.822;2023-03-11T20:18:31;0.10;99.90
24448;DHT22;13348;50.984;5.822;2023-03-11T20:20:58;0.00;99.90
24448;DHT22;13348;50.984;5.822;2023-03-11T20:23:26;0.00;99.90
24448;DHT22;13348;50.984;5.822;2023-03-11T20:25:53;-0.10;99.90
24448;DHT22;13348;50.984;5.822;2023-03-11T20:28:20;-0.20;99.90
24448;DHT22;13348;50.984;5.822;2023-03-11T20:30:47;-0.20;99.90
24448;DHT22;13348;50.984;5.822;2023-03-11T20:33:14;-0.10;99.90
24448;DHT22;13348;50.984;5.822;2023-03-11T20:35:41;-0.10;99.90
24448;DHT22;13348;50.984;5.822;2023-03-11T20:38:08;0.00;99.90
24448;DHT22;13348;50.984;5.822;2023-03-11T20:40:38;0.10;99.90
24448;DHT22;13348;50.984;5.822;2023-03-11T20:43:05;0.20;99.90
24448;DHT22;13348;50.984;5.822;2023-03-11T20:45:32;0.30;99.90
24448;DHT22;13348;50.984;5.822;2023-03-11T20:47:59;0.30;99.90
24448;DHT22;13348;50.984;5.822;2023-03-11T20:50:26;0.30;99.90
24448;DHT22;13348;50.984;5.822;2023-03-11T20:52:53;0.40;99.90
24448;DHT22;13348;50.984;5.822;2023-03-11T20:55:20;0.70;99.90
24448;DHT22;13348;50.984;5.822;2023-03-11T20:57:49;1.20;99.90
24448;DHT22;13348;50.984;5.822;2023-03-11T21:00:19;1.60;99.90
24448;DHT22;13348;50.984;5.822;2023-03-11T21:02:46;1.80;99.90
24448;DHT22;13348;50.984;5.822;2023-03-11T21:05:13;2.00;99.90
24448;DHT22;13348;50.984;5.822;2023-03-11T21:07:39;2.10;99.90
24448;DHT22;13348;50.984;5.822;2023-03-11T21:10:07;2.20;99.90
24448;DHT22;13348;50.984;5.822;2023-03-11T21:12:35;2.20;99.90
24448;DHT22;13348;50.984;5.822;2023-03-11T21:15:03;2.00;99.90
24448;DHT22;13348;50.984;5.822;2023-03-11T21:17:31;1.80;99.90
24448;DHT22;13348;50.984;5.822;2023-03-11T21:19:58;1.70;99.90
24448;DHT22;13348;50.984;5.822;2023-03-11T21:22:25;1.80;99.90
24448;DHT22;13348;50.984;5.822;2023-03-11T21:24:52;1.80;99.90
24448;DHT22;13348;50.984;5.822;2023-03-11T21:27:20;1.80;99.90
24448;DHT22;13348;50.984;5.822;2023-03-11T21:29:50;1.90;99.90
24448;DHT22;13348;50.984;5.822;2023-03-11T21:32:19;2.00;99.90
24448;DHT22;13348;50.984;5.822;2023-03-11T21:34:46;2.10;99.90
24448;DHT22;13348;50.984;5.822;2023-03-11T21:37:13;2.20;99.90
24448;DHT22;13348;50.984;5.822;2023-03-11T21:39:40;2.30;99.90
24448;DHT22;13348;50.984;5.822;2023-03-11T21:42:07;2.40;99.90
24448;DHT22;13348;50.984;5.822;2023-03-11T21:44:34;2.40;99.90
24448;DHT22;13348;50.984;5.822;2023-03-11T21:47:01;2.50;99.90
24448;DHT22;13348;50.984;5.822;2023-03-11T21:49:29;2.40;99.90
24448;DHT22;13348;50.984;5.822;2023-03-11T21:51:56;2.40;99.90
24448;DHT22;13348;50.984;5.822;2023-03-11T21:54:23;2.40;99.90
24448;DHT22;13348;50.984;5.822;2023-03-11T21:56:50;2.40;99.90
24448;DHT22;13348;50.984;5.822;2023-03-11T21:59:17;2.40;99.90
24448;DHT22;13348;50.984;5.822;2023-03-11T22:01:44;2.50;99.90
24448;DHT22;13348;50.984;5.822;2023-03-11T22:04:11;2.50;99.90
24448;DHT22;13348;50.984;5.822;2023-03-11T22:06:40;2.50;99.90
24448;DHT22;13348;50.984;5.822;2023-03-11T22:09:07;2.60;99.90
24448;DHT22;13348;50.984;5.822;2023-03-11T22:11:34;2.60;99.90
24448;DHT22;13348;50.984;5.822;2023-03-11T22:14:01;2.60;99.90
24448;DHT22;13348;50.984;5.822;2023-03-11T22:16:28;2.50;99.90
24448;DHT22;13348;50.984;5.822;2023-03-11T22:18:55;2.60;99.90
24448;DHT22;13348;50.984;5.822;2023-03-11T22:21:22;2.50;99.90
24448;DHT22;13348;50.984;5.822;2023-03-11T22:23:50;2.50;99.90
24448;DHT22;13348;50.984;5.822;2023-03-11T22:26:17;2.50;99.90
24448;DHT22;13348;50.984;5.822;2023-03-11T22:28:44;2.50;99.90
24448;DHT22;13348;50.984;5.822;2023-03-11T22:31:12;2.50;99.90
24448;DHT22;13348;50.984;5.822;2023-03-11T22:33:39;2.50;99.90
24448;DHT22;13348;50.984;5.822;2023-03-11T22:36:07;2.50;99.90
24448;DHT22;13348;50.984;5.822;2023-03-11T22:38:34;2.50;99.90
24448;DHT22;13348;50.984;5.822;2023-03-11T22:41:04;2.50;99.90
24448;DHT22;13348;50.984;5.822;2023-03-11T22:43:32;2.50;99.90
24448;DHT22;13348;50.984;5.822;2023-03-11T22:45:59;2.60;99.90
24448;DHT22;13348;50.984;5.822;2023-03-11T22:48:27;2.60;99.90
